sensor_id;sensor_type;location;lat;lon;timestamp;pressure;altitude;pressure_sealevel;temperature;humidity
80405;BME280;69733;48.744;9.176;2023-06-10T00:01:49;96361.75;;;17.17;51.56
80405;BME280;69733;48.744;9.176;2023-06-10T00:04:15;96356.63;;;17.16;51.85
80405;BME280;69733;48.744;9.176;2023-06-10T00:06:42;96355.31;;;17.13;52.09
80405;BME280;69733;48.744;9.176;2023-06-10T00:09:08;96354.50;;;17.13;52.03
80405;BME280;69733;48.744;9.176;2023-06-10T00:11:35;96350.44;;;17.20;52.13
80405;BME280;69733;48.744;9.176;2023-06-10T00:14:01;96358.97;;;17.27;52.41
80405;BME280;69733;48.744;9.176;2023-06-10T00:16:27;96351.72;;;17.28;52.36
80405;BME280;69733;48.744;9.176;2023-06-10T00:18:52;96359.78;;;17.28;52.54
80405;BME280;69733;48.744;9.176;2023-06-10T00:21:40;96354.66;;;17.31;52.52
80405;BME280;69733;48.744;9.176;2023-06-10T00:24:07;96351.47;;;17.24;52.67
80405;BME280;69733;48.744;9.176;2023-06-10T00:26:34;96355.25;;;17.18;53.09
80405;BME280;69733;48.744;9.176;2023-06-10T00:29:02;96352.34;;;17.15;53.17
80405;BME280;69733;48.744;9.176;2023-06-10T00:31:28;96354.25;;;17.14;53.29
80405;BME280;69733;48.744;9.176;2023-06-10T00:33:53;96345.63;;;17.12;53.58
80405;BME280;69733;48.744;9.176;2023-06-10T00:36:19;96349.16;;;17.08;53.54
80405;BME280;69733;48.744;9.176;2023-06-10T00:38:44;96353.22;;;17.05;53.71
80405;BME280;69733;48.744;9.176;2023-06-10T00:41:09;96352.47;;;17.00;53.95
80405;BME280;69733;48.744;9.176;2023-06-10T00:43:35;96347.66;;;16.97;53.97
80405;BME280;69733;48.744;9.176;2023-06-10T00:46:00;96351.16;;;16.92;54.29
80405;BME280;69733;48.744;9.176;2023-06-10T00:48:27;96352.81;;;16.88;54.56
80405;BME280;69733;48.744;9.176;2023-06-10T00:50:52;96352.84;;;16.83;54.50
80405;BME280;69733;48.744;9.176;2023-06-10T00:53:18;96359.31;;;16.77;54.65
80405;BME280;69733;48.744;9.176;2023-06-10T00:55:44;96355.88;;;16.71;54.72
80405;BME280;69733;48.744;9.176;2023-06-10T00:58:10;96345.44;;;16.65;54.78
80405;BME280;69733;48.744;9.176;2023-06-10T01:00:35;96347.06;;;16.61;54.76
80405;BME280;69733;48.744;9.176;2023-06-10T01:03:01;96358.63;;;16.56;54.91
80405;BME280;69733;48.744;9.176;2023-06-10T01:05:27;96350.56;;;16.51;55.08
80405;BME280;69733;48.744;9.176;2023-06-10T01:10:33;96347.41;;;16.39;55.42
80405;BME280;69733;48.744;9.176;2023-06-10T01:13:05;96349.31;;;16.33;55.67
80405;BME280;69733;48.744;9.176;2023-06-10T01:15:32;96339.06;;;16.40;55.74
80405;BME280;69733;48.744;9.176;2023-06-10T01:18:02;96338.00;;;16.47;55.64
80405;BME280;69733;48.744;9.176;2023-06-10T01:20:29;96343.59;;;16.50;55.77
80405;BME280;69733;48.744;9.176;2023-06-10T01:22:55;96340.38;;;16.48;55.94
80405;BME280;69733;48.744;9.176;2023-06-10T01:25:23;96337.69;;;16.53;55.96
80405;BME280;69733;48.744;9.176;2023-06-10T01:28:07;96340.66;;;16.57;55.97
80405;BME280;69733;48.744;9.176;2023-06-10T01:30:43;96339.56;;;16.58;55.98
80405;BME280;69733;48.744;9.176;2023-06-10T01:33:11;96331.75;;;16.61;55.92
80405;BME280;69733;48.744;9.176;2023-06-10T01:35:38;96334.69;;;16.65;56.23
80405;BME280;69733;48.744;9.176;2023-06-10T01:38:04;96335.78;;;16.64;56.41
80405;BME280;69733;48.744;9.176;2023-06-10T01:40:32;96333.34;;;16.62;56.32
80405;BME280;69733;48.744;9.176;2023-06-10T01:42:57;96344.38;;;16.61;56.64
80405;BME280;69733;48.744;9.176;2023-06-10T01:45:23;96336.88;;;16.58;56.59
80405;BME280;69733;48.744;9.176;2023-06-10T01:47:48;96339.81;;;16.51;56.69
80405;BME280;69733;48.744;9.176;2023-06-10T01:50:13;96341.47;;;16.47;56.84
80405;BME280;69733;48.744;9.176;2023-06-10T01:52:39;96345.53;;;16.39;57.02
80405;BME280;69733;48.744;9.176;2023-06-10T01:55:05;96341.25;;;16.33;57.18
80405;BME280;69733;48.744;9.176;2023-06-10T01:57:30;96341.28;;;16.28;57.27
80405;BME280;69733;48.744;9.176;2023-06-10T01:59:55;96340.22;;;16.24;57.49
80405;BME280;69733;48.744;9.176;2023-06-10T02:02:21;96346.16;;;16.21;57.41
80405;BME280;69733;48.744;9.176;2023-06-10T02:04:47;96348.84;;;16.16;57.61
80405;BME280;69733;48.744;9.176;2023-06-10T02:07:12;96347.00;;;16.12;57.80
80405;BME280;69733;48.744;9.176;2023-06-10T02:09:38;96350.75;;;16.06;57.60
80405;BME280;69733;48.744;9.176;2023-06-10T02:12:03;96355.63;;;16.04;58.05
80405;BME280;69733;48.744;9.176;2023-06-10T02:14:29;96351.06;;;16.04;57.99
80405;BME280;69733;48.744;9.176;2023-06-10T02:16:57;96356.44;;;16.04;58.05
80405;BME280;69733;48.744;9.176;2023-06-10T02:19:22;96358.84;;;16.01;58.12
80405;BME280;69733;48.744;9.176;2023-06-10T02:21:48;96354.28;;;15.96;58.19
80405;BME280;69733;48.744;9.176;2023-06-10T02:24:14;96357.78;;;15.91;58.27
80405;BME280;69733;48.744;9.176;2023-06-10T02:26:39;96359.94;;;15.89;58.42
80405;BME280;69733;48.744;9.176;2023-06-10T02:29:05;96354.31;;;15.86;58.58
80405;BME280;69733;48.744;9.176;2023-06-10T02:31:30;96357.56;;;15.83;58.63
80405;BME280;69733;48.744;9.176;2023-06-10T02:33:55;96359.16;;;15.79;58.60
80405;BME280;69733;48.744;9.176;2023-06-10T02:36:21;96361.31;;;15.77;58.82
80405;BME280;69733;48.744;9.176;2023-06-10T02:38:49;96366.97;;;15.70;58.84
80405;BME280;69733;48.744;9.176;2023-06-10T02:41:14;96361.31;;;15.67;59.02
80405;BME280;69733;48.744;9.176;2023-06-10T02:43:40;96367.53;;;15.62;59.21
80405;BME280;69733;48.744;9.176;2023-06-10T02:46:05;96368.34;;;15.58;59.15
80405;BME280;69733;48.744;9.176;2023-06-10T02:48:30;96374.78;;;15.52;59.46
80405;BME280;69733;48.744;9.176;2023-06-10T02:50:56;96376.88;;;15.44;59.38
80405;BME280;69733;48.744;9.176;2023-06-10T02:53:21;96377.97;;;15.38;59.52
80405;BME280;69733;48.744;9.176;2023-06-10T02:55:46;96377.16;;;15.33;59.78
80405;BME280;69733;48.744;9.176;2023-06-10T02:58:12;96368.31;;;15.27;59.84
80405;BME280;69733;48.744;9.176;2023-06-10T03:00:37;96377.94;;;15.23;59.84
80405;BME280;69733;48.744;9.176;2023-06-10T03:03:05;96375.28;;;15.18;59.94
80405;BME280;69733;48.744;9.176;2023-06-10T03:05:30;96372.59;;;15.13;60.15
80405;BME280;69733;48.744;9.176;2023-06-10T03:07:56;96372.31;;;15.10;60.11
80405;BME280;69733;48.744;9.176;2023-06-10T03:10:21;96374.19;;;15.04;60.39
80405;BME280;69733;48.744;9.176;2023-06-10T03:12:46;96369.38;;;15.01;60.33
80405;BME280;69733;48.744;9.176;2023-06-10T03:15:12;96379.81;;;14.98;60.49
80405;BME280;69733;48.744;9.176;2023-06-10T03:17:38;96381.13;;;14.95;60.46
80405;BME280;69733;48.744;9.176;2023-06-10T03:20:04;96384.34;;;14.92;60.75
80405;BME280;69733;48.744;9.176;2023-06-10T03:22:35;96391.06;;;14.89;60.71
80405;BME280;69733;48.744;9.176;2023-06-10T03:25:00;96384.38;;;14.87;60.73
80405;BME280;69733;48.744;9.176;2023-06-10T03:27:26;96388.09;;;14.86;60.91
80405;BME280;69733;48.744;9.176;2023-06-10T03:29:51;96393.47;;;14.86;60.88
80405;BME280;69733;48.744;9.176;2023-06-10T03:32:17;96389.44;;;14.83;61.04
80405;BME280;69733;48.744;9.176;2023-06-10T03:34:43;96407.09;;;14.84;61.14
80405;BME280;69733;48.744;9.176;2023-06-10T03:37:10;96400.97;;;14.84;61.15
80405;BME280;69733;48.744;9.176;2023-06-10T03:39:35;96409.78;;;14.84;61.22
80405;BME280;69733;48.744;9.176;2023-06-10T03:42:00;96407.09;;;14.84;61.03
80405;BME280;69733;48.744;9.176;2023-06-10T03:44:26;96411.41;;;14.85;61.19
80405;BME280;69733;48.744;9.176;2023-06-10T03:46:51;96409.53;;;14.86;61.30
80405;BME280;69733;48.744;9.176;2023-06-10T03:49:17;96421.59;;;14.88;61.49
80405;BME280;69733;48.744;9.176;2023-06-10T03:51:42;96414.63;;;14.92;61.58
80405;BME280;69733;48.744;9.176;2023-06-10T03:54:08;96412.78;;;15.03;61.29
80405;BME280;69733;48.744;9.176;2023-06-10T03:56:33;96415.47;;;15.08;61.46
80405;BME280;69733;48.744;9.176;2023-06-10T03:58:58;96406.91;;;15.11;61.16
80405;BME280;69733;48.744;9.176;2023-06-10T04:01:24;96407.16;;;15.15;61.58
80405;BME280;69733;48.744;9.176;2023-06-10T04:03:49;96420.56;;;15.20;61.49
80405;BME280;69733;48.744;9.176;2023-06-10T04:06:16;96416.00;;;15.20;61.77
80405;BME280;69733;48.744;9.176;2023-06-10T04:08:41;96415.75;;;15.22;62.09
80405;BME280;69733;48.744;9.176;2023-06-10T04:11:08;96419.78;;;15.24;61.77
80405;BME280;69733;48.744;9.176;2023-06-10T04:13:33;96415.50;;;15.28;61.88
80405;BME280;69733;48.744;9.176;2023-06-10T04:15:58;96410.16;;;15.33;61.95
80405;BME280;69733;48.744;9.176;2023-06-10T04:18:24;96410.13;;;15.38;61.98
80405;BME280;69733;48.744;9.176;2023-06-10T04:20:50;96408.53;;;15.42;62.10
80405;BME280;69733;48.744;9.176;2023-06-10T04:23:16;96415.78;;;15.47;62.09
80405;BME280;69733;48.744;9.176;2023-06-10T04:25:41;96418.22;;;15.54;61.87
80405;BME280;69733;48.744;9.176;2023-06-10T04:28:07;96423.59;;;15.59;62.16
80405;BME280;69733;48.744;9.176;2023-06-10T04:30:32;96418.47;;;15.67;62.12
80405;BME280;69733;48.744;9.176;2023-06-10T04:32:58;96427.31;;;15.78;61.99
80405;BME280;69733;48.744;9.176;2023-06-10T04:35:24;96421.13;;;15.87;62.00
80405;BME280;69733;48.744;9.176;2023-06-10T04:37:51;96427.28;;;15.98;61.87
80405;BME280;69733;48.744;9.176;2023-06-10T04:40:17;96421.63;;;16.10;61.97
80405;BME280;69733;48.744;9.176;2023-06-10T04:42:42;96423.47;;;16.29;61.72
80405;BME280;69733;48.744;9.176;2023-06-10T04:45:08;96427.31;;;16.77;61.17
80405;BME280;69733;48.744;9.176;2023-06-10T04:47:34;96416.09;;;17.48;60.19
80405;BME280;69733;48.744;9.176;2023-06-10T04:50:00;96422.16;;;18.21;59.13
80405;BME280;69733;48.744;9.176;2023-06-10T04:52:26;96424.69;;;19.03;57.85
80405;BME280;69733;48.744;9.176;2023-06-10T04:54:52;96429.03;;;19.73;57.18
80405;BME280;69733;48.744;9.176;2023-06-10T04:57:18;96421.28;;;20.45;56.35
80405;BME280;69733;48.744;9.176;2023-06-10T04:59:45;96426.19;;;21.11;55.71
80405;BME280;69733;48.744;9.176;2023-06-10T05:02:10;96423.78;;;21.68;55.21
80405;BME280;69733;48.744;9.176;2023-06-10T05:04:36;96432.72;;;22.21;54.38
80405;BME280;69733;48.744;9.176;2023-06-10T05:07:01;96427.31;;;22.61;54.18
80405;BME280;69733;48.744;9.176;2023-06-10T05:09:26;96427.31;;;23.09;53.54
80405;BME280;69733;48.744;9.176;2023-06-10T05:11:51;96427.53;;;23.47;53.31
80405;BME280;69733;48.744;9.176;2023-06-10T05:14:18;96425.88;;;23.89;53.01
80405;BME280;69733;48.744;9.176;2023-06-10T05:16:45;96432.72;;;24.20;52.57
80405;BME280;69733;48.744;9.176;2023-06-10T05:19:11;96432.78;;;24.50;52.24
80405;BME280;69733;48.744;9.176;2023-06-10T05:21:36;96429.22;;;24.96;51.52
80405;BME280;69733;48.744;9.176;2023-06-10T05:24:01;96435.06;;;25.36;50.95
80405;BME280;69733;48.744;9.176;2023-06-10T05:26:27;96441.91;;;25.83;49.69
80405;BME280;69733;48.744;9.176;2023-06-10T05:28:54;96442.09;;;26.32;48.93
80405;BME280;69733;48.744;9.176;2023-06-10T05:31:19;96434.75;;;26.68;48.30
80405;BME280;69733;48.744;9.176;2023-06-10T05:33:45;96432.63;;;26.98;47.53
80405;BME280;69733;48.744;9.176;2023-06-10T05:36:10;96442.13;;;27.29;46.76
80405;BME280;69733;48.744;9.176;2023-06-10T05:38:35;96441.28;;;27.64;46.03
80405;BME280;69733;48.744;9.176;2023-06-10T05:41:01;96442.38;;;28.03;45.01
80405;BME280;69733;48.744;9.176;2023-06-10T05:43:26;96444.97;;;28.40;44.24
80405;BME280;69733;48.744;9.176;2023-06-10T05:45:52;96444.22;;;28.71;43.50
80405;BME280;69733;48.744;9.176;2023-06-10T05:48:17;96446.66;;;29.07;42.68
80405;BME280;69733;48.744;9.176;2023-06-10T05:50:43;96439.28;;;29.42;41.74
80405;BME280;69733;48.744;9.176;2023-06-10T05:53:13;96446.44;;;29.66;40.63
80405;BME280;69733;48.744;9.176;2023-06-10T05:55:44;96443.38;;;29.87;40.22
80405;BME280;69733;48.744;9.176;2023-06-10T05:58:10;96447.06;;;30.13;39.37
80405;BME280;69733;48.744;9.176;2023-06-10T06:00:37;96448.84;;;30.25;38.86
80405;BME280;69733;48.744;9.176;2023-06-10T06:03:02;96458.75;;;30.10;37.90
80405;BME280;69733;48.744;9.176;2023-06-10T06:05:28;96449.41;;;30.15;37.18
80405;BME280;69733;48.744;9.176;2023-06-10T06:07:53;96459.53;;;30.49;36.78
80405;BME280;69733;48.744;9.176;2023-06-10T06:10:18;96460.06;;;30.81;36.28
80405;BME280;69733;48.744;9.176;2023-06-10T06:12:44;96459.81;;;30.90;35.40
80405;BME280;69733;48.744;9.176;2023-06-10T06:15:10;96453.28;;;30.75;34.65
80405;BME280;69733;48.744;9.176;2023-06-10T06:17:36;96459.25;;;30.58;34.72
80405;BME280;69733;48.744;9.176;2023-06-10T06:20:03;96459.22;;;30.77;34.20
80405;BME280;69733;48.744;9.176;2023-06-10T06:22:28;96454.22;;;31.05;33.51
80405;BME280;69733;48.744;9.176;2023-06-10T06:24:53;96448.84;;;31.39;33.13
80405;BME280;69733;48.744;9.176;2023-06-10T06:27:19;96450.16;;;31.78;32.76
80405;BME280;69733;48.744;9.176;2023-06-10T06:29:44;96461.69;;;31.87;32.13
80405;BME280;69733;48.744;9.176;2023-06-10T06:32:10;96456.69;;;31.96;31.79
80405;BME280;69733;48.744;9.176;2023-06-10T06:34:35;96461.63;;;32.14;30.79
80405;BME280;69733;48.744;9.176;2023-06-10T06:37:00;96463.00;;;31.97;30.96
80405;BME280;69733;48.744;9.176;2023-06-10T06:39:25;96454.19;;;31.84;30.91
80405;BME280;69733;48.744;9.176;2023-06-10T06:41:51;96453.22;;;32.03;30.68
80405;BME280;69733;48.744;9.176;2023-06-10T06:44:16;96458.38;;;32.38;30.54
80405;BME280;69733;48.744;9.176;2023-06-10T06:46:41;96461.63;;;32.47;30.33
80405;BME280;69733;48.744;9.176;2023-06-10T06:49:07;96462.34;;;32.40;29.78
80405;BME280;69733;48.744;9.176;2023-06-10T06:51:32;96466.44;;;32.57;29.63
80405;BME280;69733;48.744;9.176;2023-06-10T06:53:57;96459.72;;;32.95;29.54
80405;BME280;69733;48.744;9.176;2023-06-10T06:56:24;96472.38;;;33.47;28.74
80405;BME280;69733;48.744;9.176;2023-06-10T06:58:50;96467.88;;;33.83;28.84
80405;BME280;69733;48.744;9.176;2023-06-10T07:01:15;96474.59;;;33.92;28.24
80405;BME280;69733;48.744;9.176;2023-06-10T07:03:41;96473.03;;;33.98;28.28
80405;BME280;69733;48.744;9.176;2023-06-10T07:06:06;96476.22;;;33.97;27.95
80405;BME280;69733;48.744;9.176;2023-06-10T07:08:31;96466.81;;;34.16;28.02
80405;BME280;69733;48.744;9.176;2023-06-10T07:10:57;96482.69;;;34.26;27.27
80405;BME280;69733;48.744;9.176;2023-06-10T07:13:22;96481.34;;;34.02;27.69
80405;BME280;69733;48.744;9.176;2023-06-10T07:15:47;96481.03;;;34.14;27.11
80405;BME280;69733;48.744;9.176;2023-06-10T07:18:15;96481.13;;;34.42;27.08
80405;BME280;69733;48.744;9.176;2023-06-10T07:20:41;96472.13;;;34.70;27.49
80405;BME280;69733;48.744;9.176;2023-06-10T07:23:06;96482.41;;;34.87;26.78
80405;BME280;69733;48.744;9.176;2023-06-10T07:25:31;96480.81;;;34.83;26.92
80405;BME280;69733;48.744;9.176;2023-06-10T07:27:57;96467.00;;;34.93;26.50
80405;BME280;69733;48.744;9.176;2023-06-10T07:30:22;96473.34;;;35.33;26.48
80405;BME280;69733;48.744;9.176;2023-06-10T07:32:47;96470.53;;;35.54;25.62
80405;BME280;69733;48.744;9.176;2023-06-10T07:35:13;96468.56;;;35.55;26.04
80405;BME280;69733;48.744;9.176;2023-06-10T07:37:38;96472.94;;;35.66;25.61
80405;BME280;69733;48.744;9.176;2023-06-10T07:40:04;96465.38;;;35.81;25.27
80405;BME280;69733;48.744;9.176;2023-06-10T07:42:31;96466.88;;;36.00;25.49
80405;BME280;69733;48.744;9.176;2023-06-10T07:44:58;96463.34;;;35.99;25.26
80405;BME280;69733;48.744;9.176;2023-06-10T07:47:23;96466.16;;;35.85;24.47
80405;BME280;69733;48.744;9.176;2023-06-10T07:49:48;96475.69;;;35.73;24.81
80405;BME280;69733;48.744;9.176;2023-06-10T07:52:14;96471.69;;;35.92;24.64
80405;BME280;69733;48.744;9.176;2023-06-10T07:54:39;96469.63;;;36.21;24.36
80405;BME280;69733;48.744;9.176;2023-06-10T07:57:04;96467.88;;;36.48;24.23
80405;BME280;69733;48.744;9.176;2023-06-10T07:59:32;96461.50;;;36.55;23.73
80405;BME280;69733;48.744;9.176;2023-06-10T08:01:57;96465.75;;;36.77;23.52
80405;BME280;69733;48.744;9.176;2023-06-10T08:04:22;96468.09;;;36.78;23.29
80405;BME280;69733;48.744;9.176;2023-06-10T08:06:48;96467.66;;;36.87;23.68
80405;BME280;69733;48.744;9.176;2023-06-10T08:09:13;96466.50;;;36.84;23.69
80405;BME280;69733;48.744;9.176;2023-06-10T08:11:38;96465.47;;;36.54;23.54
80405;BME280;69733;48.744;9.176;2023-06-10T08:14:04;96462.75;;;36.43;23.43
80405;BME280;69733;48.744;9.176;2023-06-10T08:16:29;96465.25;;;36.85;23.40
80405;BME280;69733;48.744;9.176;2023-06-10T08:18:54;96466.31;;;37.09;23.32
80405;BME280;69733;48.744;9.176;2023-06-10T08:21:20;96462.13;;;37.31;22.54
80405;BME280;69733;48.744;9.176;2023-06-10T08:23:45;96450.09;;;37.49;23.16
80405;BME280;69733;48.744;9.176;2023-06-10T08:26:10;96464.72;;;37.94;22.76
80405;BME280;69733;48.744;9.176;2023-06-10T08:28:36;96461.38;;;38.06;21.92
80405;BME280;69733;48.744;9.176;2023-06-10T08:31:01;96467.00;;;38.02;21.88
80405;BME280;69733;48.744;9.176;2023-06-10T08:33:27;96462.53;;;37.74;21.75
80405;BME280;69733;48.744;9.176;2023-06-10T08:35:52;96465.59;;;37.43;21.86
80405;BME280;69733;48.744;9.176;2023-06-10T08:38:17;96469.03;;;37.16;22.09
80405;BME280;69733;48.744;9.176;2023-06-10T08:40:43;96465.34;;;37.30;22.00
80405;BME280;69733;48.744;9.176;2023-06-10T08:43:17;96469.06;;;37.57;21.84
80405;BME280;69733;48.744;9.176;2023-06-10T08:45:48;96463.75;;;37.70;21.84
80405;BME280;69733;48.744;9.176;2023-06-10T08:48:17;96474.13;;;38.03;21.43
80405;BME280;69733;48.744;9.176;2023-06-10T08:50:44;96466.06;;;37.37;21.41
80405;BME280;69733;48.744;9.176;2023-06-10T08:53:13;96462.75;;;37.53;21.60
80405;BME280;69733;48.744;9.176;2023-06-10T08:55:44;96458.91;;;37.77;21.86
80405;BME280;69733;48.744;9.176;2023-06-10T08:58:12;96464.66;;;37.60;21.43
80405;BME280;69733;48.744;9.176;2023-06-10T09:00:38;96473.72;;;37.23;22.03
80405;BME280;69733;48.744;9.176;2023-06-10T09:03:04;96460.59;;;37.30;21.77
80405;BME280;69733;48.744;9.176;2023-06-10T09:05:33;96451.88;;;37.69;21.76
80405;BME280;69733;48.744;9.176;2023-06-10T09:07:59;96449.53;;;38.02;20.97
80405;BME280;69733;48.744;9.176;2023-06-10T09:10:28;96449.88;;;38.07;20.96
80405;BME280;69733;48.744;9.176;2023-06-10T09:13:16;96447.75;;;38.18;20.94
80405;BME280;69733;48.744;9.176;2023-06-10T09:15:43;96444.47;;;38.23;21.09
80405;BME280;69733;48.744;9.176;2023-06-10T09:18:12;96453.94;;;38.60;20.97
80405;BME280;69733;48.744;9.176;2023-06-10T09:20:41;96442.94;;;38.79;20.85
80405;BME280;69733;48.744;9.176;2023-06-10T09:23:06;96459.47;;;38.90;20.90
80405;BME280;69733;48.744;9.176;2023-06-10T09:25:36;96449.66;;;38.82;20.11
80405;BME280;69733;48.744;9.176;2023-06-10T09:28:02;96449.34;;;38.73;20.36
80405;BME280;69733;48.744;9.176;2023-06-10T09:30:34;96446.16;;;38.17;19.88
80405;BME280;69733;48.744;9.176;2023-06-10T09:33:01;96461.41;;;37.24;20.69
80405;BME280;69733;48.744;9.176;2023-06-10T09:35:28;96450.06;;;36.49;21.05
80405;BME280;69733;48.744;9.176;2023-06-10T09:37:59;96444.81;;;35.68;21.59
80405;BME280;69733;48.744;9.176;2023-06-10T09:40:27;96451.13;;;34.55;22.51
80405;BME280;69733;48.744;9.176;2023-06-10T09:42:54;96441.13;;;34.01;23.56
80405;BME280;69733;48.744;9.176;2023-06-10T09:45:21;96445.19;;;34.39;23.01
80405;BME280;69733;48.744;9.176;2023-06-10T09:47:47;96446.41;;;34.52;23.28
80405;BME280;69733;48.744;9.176;2023-06-10T09:50:13;96444.88;;;34.72;23.62
80405;BME280;69733;48.744;9.176;2023-06-10T09:52:38;96440.56;;;35.17;23.84
80405;BME280;69733;48.744;9.176;2023-06-10T09:55:04;96436.59;;;35.22;23.27
80405;BME280;69733;48.744;9.176;2023-06-10T09:57:33;96451.94;;;35.76;22.89
80405;BME280;69733;48.744;9.176;2023-06-10T10:00:09;96432.84;;;36.06;22.40
80405;BME280;69733;48.744;9.176;2023-06-10T10:03:01;96429.59;;;36.22;21.91
80405;BME280;69733;48.744;9.176;2023-06-10T10:05:27;96428.78;;;36.25;21.96
80405;BME280;69733;48.744;9.176;2023-06-10T10:07:52;96436.78;;;36.09;22.06
80405;BME280;69733;48.744;9.176;2023-06-10T10:10:22;96430.81;;;36.14;21.85
80405;BME280;69733;48.744;9.176;2023-06-10T10:12:48;96427.19;;;36.31;21.97
80405;BME280;69733;48.744;9.176;2023-06-10T10:15:16;96433.25;;;36.77;21.63
80405;BME280;69733;48.744;9.176;2023-06-10T10:17:49;96430.72;;;36.94;21.40
80405;BME280;69733;48.744;9.176;2023-06-10T10:20:20;96424.19;;;36.70;20.91
80405;BME280;69733;48.744;9.176;2023-06-10T10:22:47;96413.53;;;36.61;21.23
80405;BME280;69733;48.744;9.176;2023-06-10T10:25:17;96417.78;;;36.00;21.68
80405;BME280;69733;48.744;9.176;2023-06-10T10:27:51;96414.63;;;36.02;21.89
80405;BME280;69733;48.744;9.176;2023-06-10T10:30:20;96421.06;;;35.77;21.96
80405;BME280;69733;48.744;9.176;2023-06-10T10:33:09;96421.16;;;35.35;22.53
80405;BME280;69733;48.744;9.176;2023-06-10T10:35:37;96419.56;;;35.41;22.82
80405;BME280;69733;48.744;9.176;2023-06-10T10:38:03;96425.53;;;35.15;22.57
80405;BME280;69733;48.744;9.176;2023-06-10T10:40:30;96422.31;;;34.49;23.35
80405;BME280;69733;48.744;9.176;2023-06-10T10:42:58;96421.81;;;34.12;23.60
80405;BME280;69733;48.744;9.176;2023-06-10T10:45:24;96413.34;;;33.66;24.30
80405;BME280;69733;48.744;9.176;2023-06-10T10:47:53;96404.88;;;33.41;24.12
80405;BME280;69733;48.744;9.176;2023-06-10T10:50:20;96410.66;;;33.15;24.86
80405;BME280;69733;48.744;9.176;2023-06-10T10:53:06;96414.81;;;32.91;24.71
80405;BME280;69733;48.744;9.176;2023-06-10T10:55:32;96417.13;;;32.89;25.21
80405;BME280;69733;48.744;9.176;2023-06-10T10:58:05;96400.06;;;32.69;25.06
80405;BME280;69733;48.744;9.176;2023-06-10T11:00:32;96399.56;;;32.60;25.76
80405;BME280;69733;48.744;9.176;2023-06-10T11:02:59;96409.47;;;31.94;26.49
80405;BME280;69733;48.744;9.176;2023-06-10T11:05:42;96404.88;;;31.72;26.57
80405;BME280;69733;48.744;9.176;2023-06-10T11:08:14;96400.31;;;31.53;26.58
80405;BME280;69733;48.744;9.176;2023-06-10T11:10:41;96407.41;;;31.54;26.34
80405;BME280;69733;48.744;9.176;2023-06-10T11:13:15;96401.59;;;31.33;26.71
80405;BME280;69733;48.744;9.176;2023-06-10T11:15:50;96402.06;;;31.39;27.01
80405;BME280;69733;48.744;9.176;2023-06-10T11:18:26;96398.44;;;31.61;26.83
80405;BME280;69733;48.744;9.176;2023-06-10T11:21:02;96398.94;;;31.67;26.73
80405;BME280;69733;48.744;9.176;2023-06-10T11:26:12;96394.97;;;31.68;26.79
80405;BME280;69733;48.744;9.176;2023-06-10T11:28:38;96392.72;;;31.47;27.08
80405;BME280;69733;48.744;9.176;2023-06-10T11:31:04;96395.06;;;31.45;27.31
80405;BME280;69733;48.744;9.176;2023-06-10T11:33:29;96394.19;;;31.64;26.89
80405;BME280;69733;48.744;9.176;2023-06-10T11:35:58;96386.84;;;31.78;26.97
80405;BME280;69733;48.744;9.176;2023-06-10T11:38:24;96395.41;;;31.70;26.77
80405;BME280;69733;48.744;9.176;2023-06-10T11:40:51;96385.22;;;31.70;26.96
80405;BME280;69733;48.744;9.176;2023-06-10T11:43:19;96385.38;;;31.25;27.69
80405;BME280;69733;48.744;9.176;2023-06-10T11:45:45;96391.84;;;30.87;27.71
80405;BME280;69733;48.744;9.176;2023-06-10T11:48:12;96384.91;;;30.47;28.19
80405;BME280;69733;48.744;9.176;2023-06-10T11:50:38;96390.69;;;30.20;28.44
80405;BME280;69733;48.744;9.176;2023-06-10T11:53:07;96387.47;;;29.95;28.76
80405;BME280;69733;48.744;9.176;2023-06-10T11:55:51;96387.75;;;29.71;28.91
80405;BME280;69733;48.744;9.176;2023-06-10T11:58:19;96389.91;;;29.81;28.93
80405;BME280;69733;48.744;9.176;2023-06-10T12:00:52;96389.28;;;29.87;29.26
80405;BME280;69733;48.744;9.176;2023-06-10T12:03:26;96389.56;;;29.82;29.02
80405;BME280;69733;48.744;9.176;2023-06-10T12:05:59;96378.44;;;29.75;29.33
80405;BME280;69733;48.744;9.176;2023-06-10T12:08:26;96382.06;;;29.79;29.35
80405;BME280;69733;48.744;9.176;2023-06-10T12:10:52;96377.72;;;29.78;29.48
80405;BME280;69733;48.744;9.176;2023-06-10T12:13:18;96383.94;;;29.75;29.33
80405;BME280;69733;48.744;9.176;2023-06-10T12:15:44;96378.81;;;29.74;29.66
80405;BME280;69733;48.744;9.176;2023-06-10T12:18:19;96374.25;;;29.81;29.75
80405;BME280;69733;48.744;9.176;2023-06-10T12:20:51;96378.72;;;29.70;29.89
80405;BME280;69733;48.744;9.176;2023-06-10T12:23:17;96371.03;;;29.76;29.85
80405;BME280;69733;48.744;9.176;2023-06-10T12:25:50;96370.28;;;29.98;29.46
80405;BME280;69733;48.744;9.176;2023-06-10T12:28:24;96365.44;;;30.10;29.42
80405;BME280;69733;48.744;9.176;2023-06-10T12:30:49;96357.75;;;30.20;29.64
80405;BME280;69733;48.744;9.176;2023-06-10T12:33:16;96363.47;;;30.34;29.56
80405;BME280;69733;48.744;9.176;2023-06-10T12:35:55;96366.59;;;30.32;29.47
80405;BME280;69733;48.744;9.176;2023-06-10T12:38:22;96369.28;;;30.29;29.42
80405;BME280;69733;48.744;9.176;2023-06-10T12:40:49;96370.56;;;30.35;29.48
80405;BME280;69733;48.744;9.176;2023-06-10T12:43:24;96371.22;;;30.28;29.61
80405;BME280;69733;48.744;9.176;2023-06-10T12:45:51;96379.28;;;30.18;29.56
80405;BME280;69733;48.744;9.176;2023-06-10T12:48:20;96379.38;;;30.02;29.41
80405;BME280;69733;48.744;9.176;2023-06-10T12:50:56;96369.50;;;29.78;29.79
80405;BME280;69733;48.744;9.176;2023-06-10T12:53:23;96370.50;;;29.70;29.86
80405;BME280;69733;48.744;9.176;2023-06-10T12:55:49;96364.53;;;29.64;30.32
80405;BME280;69733;48.744;9.176;2023-06-10T12:58:14;96365.00;;;29.70;30.09
80405;BME280;69733;48.744;9.176;2023-06-10T13:00:40;96373.84;;;29.60;30.48
80405;BME280;69733;48.744;9.176;2023-06-10T13:03:07;96362.22;;;29.47;30.56
80405;BME280;69733;48.744;9.176;2023-06-10T13:05:33;96373.06;;;29.25;30.53